Time;durP1;ratioP1;P1;durP2;ratioP2;P2;SDS_P1;SDS_P2;PMS_P1;PMS_P2;Temp;Humidity;BMP_temperature;BMP_pressure;BME280_temperature;BME280_humidity;BME280_pressure;Samples;Min_cycle;Max_cycle;Signal;HPM_P1;HPM_P2
2022/02/27 00:01:12;;;;;;;;;;;21.90;43.50;;;;;;5157082;27;20370;-51
2022/02/27 00:03:39;;;;;;;;;;;21.90;43.50;;;;;;5158572;27;19946;-44
2022/02/27 00:06:08;;;;;;;;;;;21.90;43.50;;;;;;5158198;27;19923;-47
2022/02/27 00:08:35;;;;;;;;;;;21.90;43.50;;;;;;5158159;27;19923;-43
2022/02/27 00:11:02;;;;;;;;;;;21.90;43.50;;;;;;5157378;27;20014;-48
2022/02/27 00:13:29;;;;;;;;;;;21.90;43.50;;;;;;5158394;27;20327;-44
2022/02/27 00:15:56;;;;;;;;;;;21.90;43.50;;;;;;5157074;27;19923;-43
2022/02/27 00:18:24;;;;;;;;;;;21.90;43.50;;;;;;5157922;27;19922;-45
2022/02/27 00:20:51;;;;;;;;;;;21.90;43.50;;;;;;5157816;27;19983;-44
2022/02/27 00:23:19;;;;;;;;;;;21.90;43.50;;;;;;5156881;27;19923;-44
2022/02/27 00:25:46;;;;;;;;;;;21.90;43.50;;;;;;5157372;27;19924;-45
2022/02/27 00:28:14;;;;;;;;;;;21.90;43.50;;;;;;5157755;27;19970;-46
2022/02/27 00:30:41;;;;;;;;;;;21.90;43.50;;;;;;5156873;27;19923;-43
2022/02/27 00:33:08;;;;;;;;;;;21.90;43.50;;;;;;5158037;27;19924;-43
2022/02/27 00:35:35;;;;;;;;;;;21.90;43.50;;;;;;5157963;27;19975;-44
2022/02/27 00:38:02;;;;;;;;;;;21.90;43.50;;;;;;5157809;27;19927;-44
2022/02/27 00:40:29;;;;;;;;;;;21.90;43.50;;;;;;5156804;27;20401;-43
2022/02/27 00:42:56;;;;;;;;;;;21.90;43.50;;;;;;5157786;27;19923;-42
2022/02/27 00:45:23;;;;;;;;;;;21.90;43.50;;;;;;5157425;27;19923;-42
2022/02/27 00:47:51;;;;;;;;;;;21.90;43.50;;;;;;5156446;27;19923;-43
2022/02/27 00:50:18;;;;;;;;;;;21.90;43.50;;;;;;5157684;27;19923;-42
2022/02/27 00:52:45;;;;;;;;;;;21.90;43.50;;;;;;5157078;27;19930;-44
2022/02/27 00:55:12;;;;;;;;;;;21.90;43.50;;;;;;5156508;27;19923;-42
2022/02/27 00:57:39;;;;;;;;;;;21.90;43.50;;;;;;5157450;27;19991;-44
2022/02/27 01:00:07;;;;;;;;;;;21.90;43.50;;;;;;5157143;27;19923;-42
2022/02/27 01:02:34;;;;;;;;;;;21.90;43.50;;;;;;5137989;27;20323;-45
2022/02/27 01:05:01;;;;;;;;;;;21.90;43.50;;;;;;5157354;27;19952;-42
2022/02/27 01:07:28;;;;;;;;;;;21.90;43.50;;;;;;5157317;27;19923;-42
2022/02/27 01:09:55;;;;;;;;;;;21.90;43.50;;;;;;5156226;27;19931;-44
2022/02/27 01:12:22;;;;;;;;;;;21.90;43.50;;;;;;5156895;27;20458;-42
2022/02/27 01:14:49;;;;;;;;;;;21.90;43.50;;;;;;5157153;27;19960;-44
2022/02/27 01:17:16;;;;;;;;;;;21.90;43.50;;;;;;5155845;27;19923;-43
2022/02/27 01:19:43;;;;;;;;;;;21.90;43.50;;;;;;5156677;27;19971;-42
2022/02/27 01:22:11;;;;;;;;;;;21.90;43.50;;;;;;5156538;27;19923;-46
2022/02/27 01:24:38;;;;;;;;;;;21.90;43.50;;;;;;5156646;27;19923;-43
2022/02/27 01:27:06;;;;;;;;;;;21.90;43.50;;;;;;5155844;27;19923;-43
2022/02/27 01:29:33;;;;;;;;;;;21.90;43.50;;;;;;5156866;27;19923;-44
2022/02/27 01:32:00;;;;;;;;;;;21.90;43.50;;;;;;5155774;27;19930;-44
2022/02/27 01:34:27;;;;;;;;;;;21.90;43.50;;;;;;5156370;27;19930;-46
2022/02/27 01:36:56;;;;;;;;;;;21.90;44.10;;;;;;5156706;27;19927;-44
2022/02/27 01:39:23;;;;;;;;;;;21.90;43.50;;;;;;5156344;27;19950;-46
2022/02/27 01:41:50;;;;;;;;;;;21.90;43.50;;;;;;5155881;27;19923;-44
2022/02/27 01:44:17;;;;;;;;;;;21.90;43.50;;;;;;5156264;27;20439;-47
2022/02/27 01:47:04;;;;;;;;;;;21.90;43.50;;;;;;5155070;27;20374;-44
2022/02/27 01:49:31;;;;;;;;;;;21.90;43.50;;;;;;5156185;27;19922;-43
2022/02/27 01:52:00;;;;;;;;;;;21.90;43.50;;;;;;5155976;27;19923;-44
2022/02/27 01:54:27;;;;;;;;;;;21.90;43.50;;;;;;5156409;27;20335;-47
2022/02/27 01:56:54;;;;;;;;;;;21.90;43.50;;;;;;5155524;27;20010;-47
2022/02/27 01:59:21;;;;;;;;;;;21.90;43.50;;;;;;5156001;27;19923;-47
2022/02/27 02:01:48;;;;;;;;;;;21.90;43.50;;;;;;5154895;27;20002;-43
2022/02/27 02:04:16;;;;;;;;;;;21.90;43.50;;;;;;5156249;27;19923;-43
2022/02/27 02:06:43;;;;;;;;;;;21.90;43.50;;;;;;5138405;27;19976;-48
2022/02/27 02:09:10;;;;;;;;;;;21.90;43.50;;;;;;5137901;27;19927;-44
2022/02/27 02:11:38;;;;;;;;;;;21.90;43.50;;;;;;5155050;27;19923;-47
2022/02/27 02:14:06;;;;;;;;;;;21.90;43.50;;;;;;5156046;27;19945;-46
2022/02/27 02:16:40;;;;;;;;;;;21.80;43.40;;;;;;5155483;27;19975;-46
2022/02/27 02:19:07;;;;;;;;;;;21.90;43.50;;;;;;5134641;27;19923;-43
2022/02/27 02:21:37;;;;;;;;;;;21.80;43.40;;;;;;5135018;27;19923;-43
2022/02/27 02:24:05;;;;;;;;;;;21.80;43.40;;;;;;5134902;27;19971;-43
2022/02/27 02:26:35;;;;;;;;;;;21.80;43.40;;;;;;5143388;27;21471;-43
2022/02/27 02:29:03;;;;;;;;;;;21.80;43.40;;;;;;5155567;27;19923;-44
2022/02/27 02:31:33;;;;;;;;;;;21.80;43.40;;;;;;5155534;27;19923;-46
2022/02/27 02:34:04;;;;;;;;;;;21.80;43.40;;;;;;5154546;27;19968;-45
2022/02/27 02:36:31;;;;;;;;;;;21.80;43.50;;;;;;5155402;27;20394;-43
2022/02/27 02:38:59;;;;;;;;;;;21.80;43.50;;;;;;5155622;27;19923;-46
2022/02/27 02:41:26;;;;;;;;;;;21.80;43.50;;;;;;5154517;27;19931;-42
2022/02/27 02:43:53;;;;;;;;;;;21.80;43.50;;;;;;5155091;27;19972;-46
2022/02/27 02:46:20;;;;;;;;;;;21.80;43.50;;;;;;5154935;27;19930;-43
2022/02/27 02:48:48;;;;;;;;;;;21.80;43.50;;;;;;5154426;27;19927;-41
2022/02/27 02:51:15;;;;;;;;;;;21.80;43.40;;;;;;5155022;27;19923;-44
2022/02/27 02:53:42;;;;;;;;;;;21.80;43.40;;;;;;5155218;27;19970;-46
2022/02/27 02:56:10;;;;;;;;;;;21.80;43.40;;;;;;5154754;27;19927;-45
2022/02/27 02:58:41;;;;;;;;;;;21.80;43.40;;;;;;5155417;27;20008;-50
2022/02/27 03:01:10;;;;;;;;;;;21.80;43.50;;;;;;5155224;27;19923;-48
2022/02/27 03:03:38;;;;;;;;;;;21.80;43.40;;;;;;5153983;27;20509;-50
2022/02/27 03:06:06;;;;;;;;;;;21.80;43.40;;;;;;5155062;27;19959;-49
2022/02/27 03:08:33;;;;;;;;;;;21.80;43.40;;;;;;5155378;27;19930;-47
2022/02/27 03:11:02;;;;;;;;;;;21.80;43.40;;;;;;5154659;27;19930;-47
2022/02/27 03:13:29;;;;;;;;;;;21.80;43.50;;;;;;5155015;27;19973;-49
2022/02/27 03:15:56;;;;;;;;;;;21.80;43.40;;;;;;5155301;27;19923;-49
2022/02/27 03:18:23;;;;;;;;;;;21.80;43.50;;;;;;5153422;27;19923;-45
2022/02/27 03:20:50;;;;;;;;;;;21.90;43.50;;;;;;5154990;27;19923;-43
2022/02/27 03:23:18;;;;;;;;;;;21.80;43.40;;;;;;5155083;27;19927;-47
2022/02/27 03:25:45;;;;;;;;;;;21.80;43.50;;;;;;5155248;27;19923;-44
2022/02/27 03:28:12;;;;;;;;;;;21.80;43.50;;;;;;5154466;27;19984;-44
2022/02/27 03:30:39;;;;;;;;;;;21.80;43.50;;;;;;5155178;27;19923;-46
2022/02/27 03:33:08;;;;;;;;;;;21.80;43.50;;;;;;5153718;27;19923;-45
2022/02/27 03:35:35;;;;;;;;;;;21.80;43.50;;;;;;5154820;27;19923;-44
2022/02/27 03:38:03;;;;;;;;;;;21.80;43.50;;;;;;5154695;27;20374;-42
2022/02/27 03:40:30;;;;;;;;;;;21.80;43.50;;;;;;5155055;27;20339;-46
2022/02/27 03:42:57;;;;;;;;;;;21.80;43.50;;;;;;5154012;27;19927;-47
2022/02/27 03:45:24;;;;;;;;;;;21.80;43.50;;;;;;5155011;27;19931;-45
2022/02/27 03:47:51;;;;;;;;;;;21.80;43.50;;;;;;5153460;27;19927;-46
2022/02/27 03:50:18;;;;;;;;;;;21.80;43.50;;;;;;5154673;27;20021;-46
2022/02/27 03:52:46;;;;;;;;;;;21.80;43.50;;;;;;5154776;27;19983;-44
2022/02/27 03:55:17;;;;;;;;;;;21.80;43.50;;;;;;5154927;27;19923;-46
2022/02/27 03:57:44;;;;;;;;;;;21.80;43.50;;;;;;5157350;27;19927;-42
2022/02/27 04:00:13;;;;;;;;;;;21.80;43.50;;;;;;5158669;27;19923;-44
2022/02/27 04:02:40;;;;;;;;;;;21.80;43.50;;;;;;5158606;27;19923;-42
2022/02/27 04:05:08;;;;;;;;;;;21.80;43.50;;;;;;5157153;27;19923;-45
2022/02/27 04:07:34;;;;;;;;;;;21.80;43.50;;;;;;5159085;27;19946;-43
2022/02/27 04:10:01;;;;;;;;;;;21.80;43.50;;;;;;5158174;27;19924;-44
2022/02/27 04:12:28;;;;;;;;;;;21.80;43.50;;;;;;5157660;27;20364;-43
2022/02/27 04:14:56;;;;;;;;;;;21.80;43.50;;;;;;5158419;27;19927;-43
2022/02/27 04:17:23;;;;;;;;;;;21.80;43.50;;;;;;5139911;27;19927;-44
2022/02/27 04:19:50;;;;;;;;;;;21.80;43.50;;;;;;5156605;27;19968;-42
2022/02/27 04:22:17;;;;;;;;;;;21.80;43.50;;;;;;5158061;27;19923;-44
2022/02/27 04:24:44;;;;;;;;;;;21.80;43.50;;;;;;5157887;27;19927;-45
2022/02/27 04:27:11;;;;;;;;;;;21.80;43.50;;;;;;5157403;27;19971;-44
2022/02/27 04:29:38;;;;;;;;;;;21.80;43.50;;;;;;5158090;27;19927;-42
2022/02/27 04:32:05;;;;;;;;;;;21.70;43.50;;;;;;5157703;27;19923;-42
2022/02/27 04:34:33;;;;;;;;;;;21.80;43.50;;;;;;5156501;27;19923;-43
2022/02/27 04:37:00;;;;;;;;;;;21.80;43.50;;;;;;5157970;27;19923;-47
2022/02/27 04:39:27;;;;;;;;;;;21.80;43.50;;;;;;5139458;27;19948;-45
2022/02/27 04:41:54;;;;;;;;;;;21.80;43.50;;;;;;5157809;27;19995;-42
2022/02/27 04:44:21;;;;;;;;;;;21.70;43.40;;;;;;5157496;27;19923;-42
2022/02/27 04:46:48;;;;;;;;;;;21.80;43.50;;;;;;5139007;27;19927;-42
2022/02/27 04:49:15;;;;;;;;;;;21.70;43.50;;;;;;5130667;27;19923;-44
2022/02/27 04:51:42;;;;;;;;;;;21.70;43.50;;;;;;5136786;27;20332;-41
2022/02/27 04:54:09;;;;;;;;;;;21.70;43.50;;;;;;5136602;27;19924;-43
2022/02/27 04:56:36;;;;;;;;;;;21.70;43.50;;;;;;5136580;27;19927;-42
2022/02/27 04:59:03;;;;;;;;;;;21.70;43.50;;;;;;5152629;27;20263;-44
2022/02/27 05:01:30;;;;;;;;;;;21.70;43.40;;;;;;5157498;27;19992;-43
2022/02/27 05:03:58;;;;;;;;;;;21.70;43.50;;;;;;5156273;27;19923;-43
2022/02/27 05:06:25;;;;;;;;;;;21.70;43.50;;;;;;5157019;27;19923;-44
2022/02/27 05:08:51;;;;;;;;;;;21.70;43.50;;;;;;5156561;27;19923;-44
2022/02/27 05:11:18;;;;;;;;;;;21.70;43.50;;;;;;5138751;27;20343;-43
2022/02/27 05:13:45;;;;;;;;;;;21.70;43.40;;;;;;5156481;27;20293;-44
2022/02/27 05:16:12;;;;;;;;;;;21.70;43.50;;;;;;5157291;27;19923;-43
2022/02/27 05:18:40;;;;;;;;;;;21.70;43.50;;;;;;5155468;27;19930;-46
2022/02/27 05:21:07;;;;;;;;;;;21.70;43.50;;;;;;5156681;27;19923;-45
2022/02/27 05:23:34;;;;;;;;;;;21.70;43.40;;;;;;5138393;27;19927;-45
2022/02/27 05:26:01;;;;;;;;;;;21.70;43.50;;;;;;5138716;27;19972;-42
2022/02/27 05:28:28;;;;;;;;;;;21.70;43.50;;;;;;5155881;27;19930;-42
2022/02/27 05:30:55;;;;;;;;;;;21.70;43.50;;;;;;5156865;27;19968;-45
2022/02/27 05:33:22;;;;;;;;;;;21.70;44.10;;;;;;5156506;27;19971;-44
2022/02/27 05:35:49;;;;;;;;;;;21.70;43.50;;;;;;5155463;27;19930;-42
2022/02/27 05:38:16;;;;;;;;;;;21.70;43.50;;;;;;5156682;27;20286;-43
2022/02/27 05:40:46;;;;;;;;;;;21.70;43.50;;;;;;5156713;27;19976;-42
2022/02/27 05:43:13;;;;;;;;;;;21.70;43.50;;;;;;5155557;27;20063;-43
2022/02/27 05:45:40;;;;;;;;;;;21.70;43.50;;;;;;5156615;27;20271;-43
2022/02/27 05:48:07;;;;;;;;;;;21.70;43.50;;;;;;5137791;27;19923;-44
2022/02/27 05:50:34;;;;;;;;;;;21.70;43.50;;;;;;5155407;27;19927;-42
2022/02/27 05:53:01;;;;;;;;;;;21.70;43.50;;;;;;5155946;27;19923;-42
2022/02/27 05:55:28;;;;;;;;;;;21.70;43.50;;;;;;5156108;27;19923;-42
2022/02/27 05:57:59;;;;;;;;;;;21.70;43.50;;;;;;5155562;27;19992;-44
2022/02/27 06:00:27;;;;;;;;;;;21.70;43.50;;;;;;5156324;27;19923;-44
2022/02/27 06:02:54;;;;;;;;;;;21.70;43.50;;;;;;5156307;27;19923;-47
2022/02/27 06:05:21;;;;;;;;;;;21.70;43.50;;;;;;5155103;27;19927;-42
2022/02/27 06:07:48;;;;;;;;;;;21.70;43.50;;;;;;5156184;27;19927;-49
2022/02/27 06:10:15;;;;;;;;;;;21.70;43.50;;;;;;5156162;27;19958;-49
2022/02/27 06:12:45;;;;;;;;;;;21.70;43.50;;;;;;5156100;27;19949;-50
2022/02/27 06:15:14;;;;;;;;;;;21.70;43.40;;;;;;5155026;27;20390;-45
2022/02/27 06:17:41;;;;;;;;;;;21.70;43.40;;;;;;5155580;27;19972;-49
2022/02/27 06:20:09;;;;;;;;;;;21.70;43.40;;;;;;5154408;27;19923;-50
2022/02/27 06:22:43;;;;;;;;;;;21.70;43.40;;;;;;5155460;27;19923;-48
2022/02/27 06:25:12;;;;;;;;;;;21.70;43.40;;;;;;5156521;27;20018;-49
2022/02/27 06:27:42;;;;;;;;;;;21.70;43.40;;;;;;5155540;27;19927;-47
2022/02/27 06:30:11;;;;;;;;;;;21.70;43.40;;;;;;5154840;27;19923;-46
2022/02/27 06:32:38;;;;;;;;;;;21.70;43.40;;;;;;5156353;27;19975;-43
2022/02/27 06:35:06;;;;;;;;;;;21.70;44.00;;;;;;5154267;27;19927;-45
2022/02/27 06:37:34;;;;;;;;;;;21.70;43.40;;;;;;5155728;27;19922;-47
2022/02/27 06:40:04;;;;;;;;;;;21.70;43.40;;;;;;5155446;27;19963;-43
2022/02/27 06:42:31;;;;;;;;;;;21.70;43.40;;;;;;5155327;27;20374;-43
2022/02/27 06:44:58;;;;;;;;;;;21.70;43.40;;;;;;5154566;27;19923;-46
2022/02/27 06:47:25;;;;;;;;;;;21.70;43.40;;;;;;5155468;27;19948;-45
2022/02/27 06:49:52;;;;;;;;;;;21.70;43.40;;;;;;5154471;27;19931;-46
2022/02/27 06:52:19;;;;;;;;;;;21.70;43.40;;;;;;5155380;27;20339;-44
2022/02/27 06:54:46;;;;;;;;;;;21.80;43.50;;;;;;5155197;27;20374;-48
2022/02/27 06:57:13;;;;;;;;;;;21.70;43.30;;;;;;5155188;27;19923;-47
2022/02/27 06:59:40;;;;;;;;;;;21.80;43.40;;;;;;5154648;27;19923;-44
2022/02/27 07:02:11;;;;;;;;;;;21.80;43.40;;;;;;5155135;27;19926;-48
2022/02/27 07:04:38;;;;;;;;;;;21.80;43.40;;;;;;5155027;27;19973;-44
2022/02/27 07:07:05;;;;;;;;;;;21.80;43.40;;;;;;5134172;27;19980;-50
2022/02/27 07:09:32;;;;;;;;;;;21.80;43.40;;;;;;5134684;28;19924;-44
2022/02/27 07:11:59;;;;;;;;;;;21.80;43.30;;;;;;5134686;28;19930;-47
2022/02/27 07:14:26;;;;;;;;;;;21.80;43.30;;;;;;5122187;27;19927;-46
2022/02/27 07:16:53;;;;;;;;;;;21.80;43.30;;;;;;5155383;27;19930;-44
2022/02/27 07:19:21;;;;;;;;;;;21.80;43.30;;;;;;5154894;27;19992;-44
2022/02/27 07:21:48;;;;;;;;;;;21.80;43.20;;;;;;5153658;27;19923;-45
2022/02/27 07:24:16;;;;;;;;;;;21.80;43.20;;;;;;5154945;27;19941;-43
2022/02/27 07:26:43;;;;;;;;;;;21.80;43.20;;;;;;5155204;27;19976;-42
2022/02/27 07:29:10;;;;;;;;;;;21.80;43.20;;;;;;5154121;27;19923;-44
2022/02/27 07:31:37;;;;;;;;;;;21.80;43.20;;;;;;5157168;27;20294;-42
2022/02/27 07:34:04;;;;;;;;;;;21.90;43.20;;;;;;5158921;27;19924;-43
2022/02/27 07:36:31;;;;;;;;;;;21.90;43.20;;;;;;5157783;27;20294;-45
2022/02/27 07:38:59;;;;;;;;;;;21.90;43.20;;;;;;5158748;27;19930;-42
2022/02/27 07:41:25;;;;;;;;;;;21.90;43.10;;;;;;5158770;27;19968;-44
2022/02/27 07:43:56;;;;;;;;;;;21.90;43.10;;;;;;5159022;27;19970;-42
2022/02/27 07:46:23;;;;;;;;;;;21.90;43.10;;;;;;5157791;27;20402;-45
2022/02/27 07:48:50;;;;;;;;;;;21.90;43.00;;;;;;5158957;27;19963;-42
2022/02/27 07:51:23;;;;;;;;;;;21.90;43.00;;;;;;5157673;27;19923;-43
2022/02/27 07:53:50;;;;;;;;;;;22.00;43.00;;;;;;5158521;27;19962;-43
2022/02/27 07:56:17;;;;;;;;;;;22.00;43.00;;;;;;5158462;27;20413;-43
2022/02/27 07:58:44;;;;;;;;;;;22.00;43.00;;;;;;5158674;27;19976;-44
2022/02/27 08:01:11;;;;;;;;;;;22.00;43.00;;;;;;5157952;27;19923;-44
2022/02/27 08:03:39;;;;;;;;;;;22.00;42.90;;;;;;5158638;27;19923;-43
2022/02/27 08:06:06;;;;;;;;;;;22.00;42.90;;;;;;5157388;27;19923;-44
2022/02/27 08:08:33;;;;;;;;;;;22.00;42.80;;;;;;5159110;27;19923;-44
2022/02/27 08:11:01;;;;;;;;;;;22.00;42.80;;;;;;5158497;27;20374;-42
2022/02/27 08:13:30;;;;;;;;;;;22.00;42.80;;;;;;5158721;27;20017;-44
2022/02/27 08:15:58;;;;;;;;;;;22.00;42.80;;;;;;5138884;27;20386;-43
2022/02/27 08:18:26;;;;;;;;;;;22.10;42.80;;;;;;5157755;27;19930;-43
2022/02/27 08:20:53;;;;;;;;;;;22.10;42.80;;;;;;5156800;27;19927;-44
2022/02/27 08:23:20;;;;;;;;;;;22.10;42.80;;;;;;5158162;27;19945;-43
2022/02/27 08:25:48;;;;;;;;;;;22.10;42.70;;;;;;5158209;27;20018;-43
2022/02/27 08:28:16;;;;;;;;;;;22.10;42.70;;;;;;5157856;27;20398;-44
2022/02/27 08:30:43;;;;;;;;;;;22.10;42.60;;;;;;5157323;27;19930;-44
2022/02/27 08:33:10;;;;;;;;;;;22.10;42.60;;;;;;5158587;27;20374;-42
2022/02/27 08:35:37;;;;;;;;;;;22.10;42.60;;;;;;5157090;27;19930;-43
2022/02/27 08:38:04;;;;;;;;;;;22.20;42.60;;;;;;5157496;27;19923;-44
2022/02/27 08:40:31;;;;;;;;;;;22.20;42.60;;;;;;5157842;27;19923;-43
2022/02/27 08:42:59;;;;;;;;;;;22.20;42.50;;;;;;5156376;27;20435;-42
2022/02/27 08:45:27;;;;;;;;;;;22.20;42.50;;;;;;5156773;27;19930;-42
2022/02/27 08:47:54;;;;;;;;;;;22.20;42.50;;;;;;5157659;27;19966;-45
2022/02/27 08:50:21;;;;;;;;;;;22.20;42.40;;;;;;5158304;27;19987;-43
2022/02/27 08:52:49;;;;;;;;;;;22.20;42.40;;;;;;5156437;27;20339;-44
2022/02/27 08:55:16;;;;;;;;;;;22.20;42.40;;;;;;5157636;27;19979;-43
2022/02/27 08:57:44;;;;;;;;;;;22.20;42.40;;;;;;5157609;27;19923;-43
2022/02/27 09:00:13;;;;;;;;;;;22.20;42.40;;;;;;5156703;27;19930;-42
2022/02/27 09:02:40;;;;;;;;;;;22.20;42.40;;;;;;5157511;27;19923;-43
2022/02/27 09:05:08;;;;;;;;;;;22.20;42.40;;;;;;5157494;27;19923;-42
2022/02/27 09:07:35;;;;;;;;;;;22.20;42.30;;;;;;5156278;27;19984;-46
2022/02/27 09:10:03;;;;;;;;;;;22.30;42.50;;;;;;5157331;27;19981;-45
2022/02/27 09:12:30;;;;;;;;;;;22.30;42.40;;;;;;5156934;27;19923;-45
2022/02/27 09:14:57;;;;;;;;;;;22.30;42.40;;;;;;5156950;27;20378;-44
2022/02/27 09:17:24;;;;;;;;;;;22.30;42.40;;;;;;5137728;27;19923;-44
2022/02/27 09:19:51;;;;;;;;;;;22.30;42.30;;;;;;5138291;27;19948;-50
2022/02/27 09:22:19;;;;;;;;;;;22.30;42.90;;;;;;5145262;27;19923;-47
2022/02/27 09:24:46;;;;;;;;;;;22.30;42.30;;;;;;5136320;27;20030;-48
2022/02/27 09:27:13;;;;;;;;;;;22.30;42.30;;;;;;5136255;27;19927;-48
2022/02/27 09:29:40;;;;;;;;;;;22.30;42.30;;;;;;5136209;27;19959;-45
2022/02/27 09:32:07;;;;;;;;;;;22.30;42.30;;;;;;5151349;27;19927;-47
2022/02/27 09:34:34;;;;;;;;;;;22.40;42.30;;;;;;5156865;27;20256;-42
2022/02/27 09:37:01;;;;;;;;;;;22.40;42.30;;;;;;5155670;27;20344;-43
2022/02/27 09:39:30;;;;;;;;;;;22.40;42.80;;;;;;5156375;27;19923;-47
2022/02/27 09:41:58;;;;;;;;;;;22.40;42.10;;;;;;5156698;27;19930;-47
2022/02/27 09:44:27;;;;;;;;;;;22.40;42.10;;;;;;5157186;27;19946;-45
2022/02/27 09:47:01;;;;;;;;;;;22.40;42.10;;;;;;5155708;27;19958;-46
2022/02/27 09:49:29;;;;;;;;;;;22.50;42.10;;;;;;5156508;27;19923;-45
2022/02/27 09:51:57;;;;;;;;;;;22.50;42.10;;;;;;5154788;27;20398;-42
2022/02/27 09:54:25;;;;;;;;;;;22.50;42.00;;;;;;5156031;27;19923;-43
2022/02/27 09:56:53;;;;;;;;;;;22.50;41.90;;;;;;5156065;27;19972;-44
2022/02/27 09:59:20;;;;;;;;;;;22.50;41.90;;;;;;5155869;27;20366;-46
2022/02/27 10:01:58;;;;;;;;;;;22.60;41.90;;;;;;5155242;27;19972;-46
2022/02/27 10:04:30;;;;;;;;;;;22.60;41.90;;;;;;5156271;27;19931;-48
2022/02/27 10:06:59;;;;;;;;;;;22.60;41.80;;;;;;5155094;27;19942;-44
2022/02/27 10:09:26;;;;;;;;;;;22.60;41.80;;;;;;5155836;27;19952;-43
2022/02/27 10:12:11;;;;;;;;;;;22.60;41.70;;;;;;5155836;27;20394;-47
2022/02/27 10:14:38;;;;;;;;;;;22.70;41.70;;;;;;5156099;27;19971;-44
2022/02/27 10:17:05;;;;;;;;;;;22.70;41.70;;;;;;5155150;27;20328;-48
2022/02/27 10:19:37;;;;;;;;;;;22.70;41.70;;;;;;5155445;27;19923;-43
2022/02/27 10:22:06;;;;;;;;;;;22.70;41.70;;;;;;5154280;27;19927;-47
2022/02/27 10:24:35;;;;;;;;;;;22.70;41.70;;;;;;5155955;27;19923;-46
2022/02/27 10:27:12;;;;;;;;;;;22.70;41.60;;;;;;5155615;27;19970;-48
2022/02/27 10:29:39;;;;;;;;;;;22.70;41.60;;;;;;5155557;27;20022;-43
2022/02/27 10:32:06;;;;;;;;;;;22.70;41.60;;;;;;5154716;27;19927;-42
2022/02/27 10:34:35;;;;;;;;;;;22.70;41.60;;;;;;5137462;27;20346;-46
2022/02/27 10:37:08;;;;;;;;;;;22.70;41.60;;;;;;5154640;27;19993;-43
2022/02/27 10:39:38;;;;;;;;;;;22.70;41.60;;;;;;5155305;27;20362;-42
2022/02/27 10:42:06;;;;;;;;;;;22.70;41.60;;;;;;5155738;27;19968;-42
2022/02/27 10:44:33;;;;;;;;;;;22.70;41.70;;;;;;5155633;27;19972;-43
2022/02/27 10:47:08;;;;;;;;;;;22.70;41.70;;;;;;5154422;27;20394;-43
2022/02/27 10:49:34;;;;;;;;;;;22.70;41.60;;;;;;5155608;27;19923;-42
2022/02/27 10:52:11;;;;;;;;;;;22.70;41.60;;;;;;5154589;27;19968;-44
2022/02/27 10:54:39;;;;;;;;;;;22.70;41.60;;;;;;5155552;27;19923;-43
2022/02/27 10:57:26;;;;;;;;;;;22.70;41.70;;;;;;5155214;27;19923;-45
2022/02/27 10:59:55;;;;;;;;;;;22.70;41.60;;;;;;5155168;27;19923;-45
2022/02/27 11:02:24;;;;;;;;;;;22.70;41.70;;;;;;5154422;27;19927;-41
2022/02/27 11:04:52;;;;;;;;;;;22.70;41.70;;;;;;5155435;27;19929;-42
2022/02/27 11:07:19;;;;;;;;;;;22.70;41.60;;;;;;5157725;27;19923;-47
2022/02/27 11:09:47;;;;;;;;;;;22.70;41.60;;;;;;5159430;27;19972;-44
2022/02/27 11:12:14;;;;;;;;;;;22.70;41.60;;;;;;5159656;27;19927;-43
2022/02/27 11:14:42;;;;;;;;;;;22.70;41.60;;;;;;5159270;27;19923;-44
2022/02/27 11:17:12;;;;;;;;;;;22.70;41.60;;;;;;5158420;27;19923;-44
2022/02/27 11:19:40;;;;;;;;;;;22.70;41.60;;;;;;5159067;27;19923;-44
2022/02/27 11:22:07;;;;;;;;;;;22.70;41.60;;;;;;5159304;27;19976;-45
2022/02/27 11:24:36;;;;;;;;;;;22.70;41.60;;;;;;5158391;27;19966;-47
2022/02/27 11:27:04;;;;;;;;;;;22.70;41.60;;;;;;5159057;27;19923;-45
2022/02/27 11:29:31;;;;;;;;;;;22.70;41.60;;;;;;5159003;27;19930;-44
2022/02/27 11:32:00;;;;;;;;;;;22.70;41.60;;;;;;5158496;27;19927;-49
2022/02/27 11:34:28;;;;;;;;;;;22.70;41.60;;;;;;5159207;27;20327;-46
2022/02/27 11:36:56;;;;;;;;;;;22.70;41.50;;;;;;5159181;27;19923;-45
2022/02/27 11:42:35;;;;;;;;;;;22.70;41.50;;;;;;5158871;27;20385;-43
2022/02/27 11:45:02;;;;;;;;;;;22.70;41.50;;;;;;5158630;27;19923;-45
2022/02/27 11:47:47;;;;;;;;;;;22.80;41.50;;;;;;5139753;27;19985;-43
2022/02/27 11:50:24;;;;;;;;;;;22.80;41.50;;;;;;5159019;27;20010;-46
2022/02/27 11:52:52;;;;;;;;;;;22.80;41.50;;;;;;5157648;27;20286;-45
2022/02/27 11:55:37;;;;;;;;;;;22.80;41.40;;;;;;5158539;27;19927;-48
2022/02/27 11:58:04;;;;;;;;;;;22.80;41.40;;;;;;5158774;27;19959;-45
2022/02/27 12:00:39;;;;;;;;;;;22.80;41.40;;;;;;5158672;27;19923;-43
2022/02/27 12:03:24;;;;;;;;;;;22.80;41.40;;;;;;5157668;27;19930;-42
2022/02/27 12:05:54;;;;;;;;;;;22.80;41.40;;;;;;5158642;27;19923;-42
2022/02/27 12:08:38;;;;;;;;;;;22.80;41.40;;;;;;5157475;27;19930;-44
2022/02/27 12:11:33;;;;;;;;;;;22.80;41.40;;;;;;5158585;27;19923;-43
2022/02/27 12:13:59;;;;;;;;;;;22.90;41.40;;;;;;5158064;27;20436;-42
2022/02/27 12:16:35;;;;;;;;;;;22.90;41.40;;;;;;5158148;27;19923;-44
2022/02/27 12:19:03;;;;;;;;;;;22.90;41.40;;;;;;5157089;27;19923;-45
2022/02/27 12:21:33;;;;;;;;;;;22.90;41.40;;;;;;5158080;27;20332;-43
2022/02/27 12:24:07;;;;;;;;;;;22.90;41.40;;;;;;5157117;27;19974;-42
2022/02/27 12:26:36;;;;;;;;;;;22.90;41.40;;;;;;5157950;27;19923;-43
2022/02/27 12:29:04;;;;;;;;;;;22.90;41.40;;;;;;5157869;27;19923;-42
2022/02/27 12:31:35;;;;;;;;;;;22.90;41.40;;;;;;5157829;27;19923;-49
2022/02/27 12:34:10;;;;;;;;;;;22.90;41.40;;;;;;5157304;27;20001;-50
2022/02/27 12:36:37;;;;;;;;;;;22.90;41.40;;;;;;5158091;27;19937;-45
2022/02/27 12:39:09;;;;;;;;;;;22.90;41.40;;;;;;5156757;27;19923;-51
2022/02/27 12:41:40;;;;;;;;;;;22.90;41.40;;;;;;5157841;27;20038;-51
2022/02/27 12:44:09;;;;;;;;;;;22.90;41.40;;;;;;5157686;27;19976;-51
2022/02/27 12:46:36;;;;;;;;;;;22.90;41.40;;;;;;5157475;27;19976;-47
2022/02/27 12:51:49;;;;;;;;;;;22.90;41.40;;;;;;5157876;27;19927;-47
2022/02/27 12:54:22;;;;;;;;;;;22.90;41.40;;;;;;5156504;27;20332;-45
2022/02/27 12:56:53;;;;;;;;;;;23.00;41.50;;;;;;5157684;27;19927;-47
2022/02/27 12:59:20;;;;;;;;;;;23.00;41.60;;;;;;5157145;27;19923;-42
2022/02/27 13:01:52;;;;;;;;;;;23.00;41.60;;;;;;5157555;27;19931;-45
2022/02/27 13:04:19;;;;;;;;;;;23.00;41.50;;;;;;5156461;27;19934;-43
2022/02/27 13:06:56;;;;;;;;;;;23.00;41.50;;;;;;5139166;27;20023;-45
2022/02/27 13:09:26;;;;;;;;;;;23.00;41.50;;;;;;5156260;27;19923;-44
2022/02/27 13:11:55;;;;;;;;;;;23.00;41.60;;;;;;5157359;27;19924;-44
2022/02/27 13:14:23;;;;;;;;;;;23.00;41.60;;;;;;5157305;27;20273;-43
2022/02/27 13:16:51;;;;;;;;;;;23.00;41.60;;;;;;5138822;27;19923;-45
2022/02/27 13:19:48;;;;;;;;;;;23.00;41.60;;;;;;5137594;27;20336;-43
2022/02/27 13:22:22;;;;;;;;;;;23.00;41.60;;;;;;5052843;28;19928;-48
2022/02/27 13:24:49;;;;;;;;;;;23.00;41.60;;;;;;5052008;28;19937;-47
2022/02/27 13:27:23;;;;;;;;;;;23.00;41.60;;;;;;5053017;28;19932;-44
2022/02/27 13:29:55;;;;;;;;;;;23.00;41.60;;;;;;5052171;28;20515;-45
2022/02/27 13:32:25;;;;;;;;;;;23.00;41.60;;;;;;5052772;28;19924;-43
2022/02/27 13:34:54;;;;;;;;;;;23.00;41.60;;;;;;5051705;28;19932;-47
2022/02/27 13:37:23;;;;;;;;;;;23.00;41.60;;;;;;5052591;28;19925;-44
2022/02/27 13:40:16;;;;;;;;;;;23.00;41.60;;;;;;5051654;28;19933;-44
2022/02/27 13:42:47;;;;;;;;;;;23.00;41.60;;;;;;5051427;28;19925;-43
2022/02/27 13:45:28;;;;;;;;;;;23.00;41.60;;;;;;5052439;28;19925;-44
2022/02/27 13:48:06;;;;;;;;;;;23.00;41.60;;;;;;5052446;28;20432;-47
2022/02/27 13:50:37;;;;;;;;;;;23.00;41.60;;;;;;5051996;28;19925;-44
2022/02/27 13:53:23;;;;;;;;;;;23.00;41.60;;;;;;5035800;28;19925;-43
2022/02/27 13:55:51;;;;;;;;;;;23.00;41.60;;;;;;5051404;28;19990;-43
2022/02/27 13:58:18;;;;;;;;;;;23.00;41.60;;;;;;5079925;27;19973;-44
2022/02/27 14:00:52;;;;;;;;;;;23.00;41.70;;;;;;5135465;27;19972;-44
2022/02/27 14:03:20;;;;;;;;;;;23.00;41.70;;;;;;5135247;27;19927;-43
2022/02/27 14:06:20;;;;;;;;;;;23.00;41.70;;;;;;5156090;27;19970;-44
2022/02/27 14:08:55;;;;;;;;;;;23.00;41.70;;;;;;5052171;28;19994;-44
2022/02/27 14:11:26;;;;;;;;;;;23.00;41.70;;;;;;5051094;28;19929;-43
2022/02/27 14:13:56;;;;;;;;;;;23.00;41.70;;;;;;5051920;28;19924;-45
2022/02/27 14:16:24;;;;;;;;;;;22.90;41.70;;;;;;5051771;28;19924;-42
2022/02/27 14:18:51;;;;;;;;;;;22.90;41.60;;;;;;5050662;28;19928;-44
2022/02/27 14:21:23;;;;;;;;;;;22.90;41.70;;;;;;5051570;28;19978;-42
2022/02/27 14:23:55;;;;;;;;;;;22.90;41.70;;;;;;5035246;28;20385;-42
2022/02/27 14:26:22;;;;;;;;;;;23.00;41.70;;;;;;5050891;28;20374;-45
2022/02/27 14:29:00;;;;;;;;;;;22.90;41.70;;;;;;5051689;28;19994;-44
2022/02/27 14:31:37;;;;;;;;;;;23.00;41.70;;;;;;5035315;28;20416;-44